Time;durP1;ratioP1;P1;durP2;ratioP2;P2;SDS_P1;SDS_P2;PMS_P1;PMS_P2;Temp;Humidity;BMP_temperature;BMP_pressure;BME280_temperature;BME280_humidity;BME280_pressure;Samples;Min_cycle;Max_cycle;Signal;HPM_P1;HPM_P2
2021/12/19 00:02:29;;;;;;;6.13;3.55;;;;;13.20;103478.00;;;;5009942;28;20730;-84
2021/12/19 00:10:39;;;;;;;7.13;3.63;;;;;13.20;103487.00;;;;4968240;28;20225;-84
2021/12/19 00:13:07;;;;;;;7.93;3.67;;;;;13.20;103475.00;;;;5012267;28;20203;-84
2021/12/19 00:15:34;;;;;;;7.47;4.57;;;;;13.10;103470.00;;;;5023574;28;20224;-84
2021/12/19 00:18:03;;;;;;;6.93;4.20;;;;;13.10;103475.00;;;;5020363;28;20208;-84
2021/12/19 00:20:32;;;;;;;8.38;4.32;;;;;13.10;103467.00;;;;5019848;28;20195;-84
2021/12/19 00:22:59;;;;;;;7.07;4.25;;;;;13.10;103465.00;;;;5012976;28;20197;-83
2021/12/19 00:25:27;;;;;;;9.35;4.78;;;;;13.10;103467.00;;;;5027636;28;20203;-84
2021/12/19 00:27:54;;;;;;;8.00;4.45;;;;;13.10;103457.00;;;;5014017;28;20192;-84
2021/12/19 00:30:22;;;;;;;7.65;3.70;;;;;13.10;103450.00;;;;5011947;28;20228;-83
2021/12/19 00:32:49;;;;;;;6.72;3.72;;;;;13.10;103449.00;;;;5023879;28;20215;-84
2021/12/19 00:35:16;;;;;;;6.47;3.80;;;;;13.10;103449.00;;;;5020162;28;20220;-85
2021/12/19 00:37:45;;;;;;;5.72;3.60;;;;;13.10;103449.00;;;;5011623;28;20205;-84
2021/12/19 00:40:13;;;;;;;5.05;3.47;;;;;13.10;103447.00;;;;5009192;28;20201;-84
2021/12/19 00:42:40;;;;;;;4.90;2.92;;;;;13.10;103448.00;;;;5024364;28;20207;-84
2021/12/19 00:45:16;;;;;;;7.47;3.28;;;;;13.10;103439.00;;;;5026691;28;20196;-84
2021/12/19 00:47:44;;;;;;;6.82;3.88;;;;;13.10;103446.00;;;;5024688;28;20621;-84
2021/12/19 00:50:13;;;;;;;4.95;3.47;;;;;13.10;103441.00;;;;5026350;28;20496;-84
2021/12/19 00:52:41;;;;;;;5.78;3.72;;;;;13.10;103442.00;;;;5017013;28;20197;-84
2021/12/19 00:55:10;;;;;;;4.70;3.65;;;;;13.00;103434.00;;;;5012793;28;20217;-84
2021/12/19 00:57:37;;;;;;;6.68;3.65;;;;;13.10;103433.00;;;;5021864;28;20224;-84
2021/12/19 01:00:07;;;;;;;5.22;3.40;;;;;13.10;103431.00;;;;5030915;28;20196;-84
2021/12/19 01:02:34;;;;;;;5.50;3.20;;;;;13.10;103432.00;;;;5024997;28;20204;-85
2021/12/19 01:05:03;;;;;;;4.68;2.90;;;;;13.10;103437.00;;;;5031937;28;20211;-84
2021/12/19 01:07:30;;;;;;;5.25;3.28;;;;;13.00;103431.00;;;;5029531;28;20208;-85
2021/12/19 01:09:57;;;;;;;5.30;3.03;;;;;13.00;103427.00;;;;5030773;28;20554;-85
2021/12/19 01:12:26;;;;;;;5.68;3.08;;;;;13.00;103425.00;;;;5023061;28;20201;-84
2021/12/19 01:14:54;;;;;;;4.07;2.47;;;;;13.00;103421.00;;;;5031867;28;20251;-84
2021/12/19 01:17:23;;;;;;;4.43;2.67;;;;;13.00;103420.00;;;;5018728;28;20205;-84
2021/12/19 01:19:50;;;;;;;4.00;2.72;;;;;13.00;103415.00;;;;5025246;28;20196;-84
2021/12/19 01:22:17;;;;;;;3.78;2.42;;;;;13.00;103424.00;;;;5027862;28;20207;-84
2021/12/19 01:24:45;;;;;;;5.93;3.60;;;;;13.00;103413.00;;;;5031318;28;20192;-84
2021/12/19 01:27:12;;;;;;;5.63;3.35;;;;;13.00;103418.00;;;;5030101;28;20227;-84
2021/12/19 01:29:41;;;;;;;5.82;3.38;;;;;13.00;103414.00;;;;5031019;28;20698;-85
2021/12/19 01:32:08;;;;;;;6.00;3.72;;;;;13.10;103412.00;;;;5024543;28;20207;-84
2021/12/19 01:34:36;;;;;;;10.73;4.10;;;;;13.10;103417.00;;;;5011974;28;20667;-84
2021/12/19 01:37:03;;;;;;;5.68;3.08;;;;;13.10;103412.00;;;;5025777;28;20240;-85
2021/12/19 01:39:31;;;;;;;6.90;3.63;;;;;13.10;103411.00;;;;5020760;28;20208;-84
2021/12/19 01:41:59;;;;;;;5.97;3.08;;;;;13.10;103410.00;;;;5014070;28;20201;-84
2021/12/19 01:44:27;;;;;;;6.30;3.45;;;;;13.10;103414.00;;;;5013244;28;20690;-84
2021/12/19 01:46:56;;;;;;;6.15;3.42;;;;;13.10;103411.00;;;;5016433;28;20193;-84
2021/12/19 01:49:24;;;;;;;5.68;3.15;;;;;13.20;103413.00;;;;5014535;28;20224;-84
2021/12/19 01:51:51;;;;;;;7.93;3.58;;;;;13.20;103417.00;;;;5016211;28;20208;-85
2021/12/19 01:54:18;;;;;;;5.28;3.30;;;;;13.20;103401.00;;;;5029386;28;20212;-84
2021/12/19 01:56:46;;;;;;;7.55;3.42;;;;;13.20;103403.00;;;;5020516;28;20236;-85
2021/12/19 01:59:14;;;;;;;7.30;3.72;;;;;13.10;103398.00;;;;5023624;28;20204;-85
2021/12/19 02:01:43;;;;;;;6.47;3.97;;;;;13.10;103399.00;;;;5019789;28;20208;-84
2021/12/19 02:04:13;;;;;;;5.88;3.67;;;;;13.10;103403.00;;;;5013124;28;20197;-85
2021/12/19 02:06:40;;;;;;;6.88;4.22;;;;;13.10;103396.00;;;;5014468;28;20200;-84
2021/12/19 02:09:08;;;;;;;7.07;3.85;;;;;13.10;103399.00;;;;5028539;28;20200;-85
2021/12/19 02:11:36;;;;;;;6.78;3.95;;;;;13.10;103387.00;;;;5026675;28;20693;-84
2021/12/19 02:14:05;;;;;;;6.30;4.00;;;;;13.10;103385.00;;;;5018516;28;20201;-84
2021/12/19 02:16:33;;;;;;;6.95;3.88;;;;;13.10;103382.00;;;;5014790;28;20228;-84
2021/12/19 02:19:01;;;;;;;6.07;3.83;;;;;13.10;103381.00;;;;5015916;28;20204;-84
2021/12/19 02:21:29;;;;;;;7.32;4.20;;;;;13.10;103376.00;;;;5019155;28;20234;-84
2021/12/19 02:23:58;;;;;;;6.65;3.78;;;;;13.10;103373.00;;;;5021341;28;20192;-84
2021/12/19 02:26:26;;;;;;;6.88;4.47;;;;;13.10;103367.00;;;;5022054;28;20196;-84
2021/12/19 02:28:53;;;;;;;6.22;3.92;;;;;13.20;103368.00;;;;5029229;28;20207;-84
2021/12/19 02:31:22;;;;;;;7.50;4.78;;;;;13.10;103366.00;;;;5021216;28;20188;-84
2021/12/19 02:34:01;;;;;;;6.32;3.70;;;;;13.20;103358.00;;;;5025859;28;20205;-84
2021/12/19 02:36:43;;;;;;;7.53;4.50;;;;;13.20;103349.00;;;;5018481;28;20220;-84
2021/12/19 02:39:37;;;;;;;6.93;4.00;;;;;13.20;103348.00;;;;5028258;28;20279;-84
2021/12/19 02:50:23;;;;;;;6.00;3.20;;;;;13.10;103344.00;;;;5018060;28;20262;-85
2021/12/19 02:52:52;;;;;;;5.63;3.88;;;;;13.10;103347.00;;;;5010297;28;20243;-84
2021/12/19 02:55:20;;;;;;;4.43;3.13;;;;;13.10;103345.00;;;;5020356;28;20200;-85
2021/12/19 02:57:49;;;;;;;5.93;3.25;;;;;13.20;103335.00;;;;5023419;28;20239;-85
2021/12/19 03:00:20;;;;;;;5.15;3.00;;;;;13.20;103327.00;;;;5029087;28;20231;-84
2021/12/19 03:02:47;;;;;;;5.53;3.00;;;;;13.20;103325.00;;;;5029888;28;20196;-85
2021/12/19 03:05:14;;;;;;;6.55;3.33;;;;;13.20;103319.00;;;;5011955;28;20586;-85
2021/12/19 03:07:43;;;;;;;5.05;2.70;;;;;13.20;103327.00;;;;5014093;28;20205;-85
2021/12/19 03:10:48;;;;;;;3.47;2.22;;;;;13.20;103320.00;;;;5018610;28;20197;-84
2021/12/19 03:13:24;;;;;;;3.63;2.38;;;;;13.30;103321.00;;;;5028815;28;20650;-84
2021/12/19 03:18:38;;;;;;;4.50;2.50;;;;;13.30;103313.00;;;;5019891;28;20265;-84
2021/12/19 03:21:09;;;;;;;4.13;2.50;;;;;13.30;103312.00;;;;5011329;28;20201;-84
2021/12/19 03:23:37;;;;;;;5.97;2.95;;;;;13.30;103313.00;;;;5026216;28;20655;-85
2021/12/19 03:26:05;;;;;;;3.42;2.22;;;;;13.30;103314.00;;;;5013142;28;20643;-85
2021/12/19 03:28:33;;;;;;;4.13;2.22;;;;;13.30;103308.00;;;;5010314;28;20188;-84
2021/12/19 03:31:02;;;;;;;4.18;2.03;;;;;13.30;103304.00;;;;5010288;28;20185;-84
2021/12/19 03:33:29;;;;;;;3.03;1.92;;;;;13.30;103310.00;;;;5009869;28;20279;-85
2021/12/19 03:35:57;;;;;;;4.53;2.08;;;;;13.40;103302.00;;;;5018210;28;20224;-85
2021/12/19 03:38:25;;;;;;;4.07;2.25;;;;;13.40;103298.00;;;;5027866;28;20200;-85
2021/12/19 03:41:07;;;;;;;3.15;1.85;;;;;13.40;103290.00;;;;5027006;28;20196;-85
2021/12/19 03:43:36;;;;;;;3.38;1.95;;;;;13.40;103288.00;;;;5008724;28;20201;-85
2021/12/19 03:46:03;;;;;;;3.05;2.00;;;;;13.40;103281.00;;;;5025103;28;20659;-84
2021/12/19 03:48:31;;;;;;;2.20;1.65;;;;;13.40;103283.00;;;;5011911;28;20208;-85
2021/12/19 03:51:00;;;;;;;3.65;1.80;;;;;13.40;103282.00;;;;5025497;28;20228;-85
2021/12/19 03:53:27;;;;;;;2.28;1.38;;;;;13.40;103273.00;;;;5023753;28;20577;-85
2021/12/19 03:55:54;;;;;;;3.20;1.42;;;;;13.40;103272.00;;;;5026622;28;20228;-85
2021/12/19 03:58:22;;;;;;;3.67;2.15;;;;;13.40;103267.00;;;;5009789;28;20216;-85
2021/12/19 04:00:53;;;;;;;3.65;2.10;;;;;13.40;103273.00;;;;5026596;28;20216;-85
2021/12/19 04:03:21;;;;;;;3.33;1.65;;;;;13.50;103261.00;;;;5023575;28;20189;-85
2021/12/19 04:05:49;;;;;;;2.42;1.40;;;;;13.40;103246.00;;;;5025596;28;20726;-84
2021/12/19 04:08:18;;;;;;;3.10;1.65;;;;;13.40;103251.00;;;;5028502;28;20204;-85
2021/12/19 04:10:47;;;;;;;2.33;1.33;;;;;13.40;103250.00;;;;5021899;28;20212;-85
2021/12/19 04:13:14;;;;;;;2.38;1.30;;;;;13.40;103251.00;;;;5028180;28;20196;-84
2021/12/19 04:15:42;;;;;;;2.17;1.30;;;;;13.40;103245.00;;;;5023135;28;20201;-85
2021/12/19 04:18:10;;;;;;;2.70;1.48;;;;;13.40;103248.00;;;;5017163;28;20189;-85
2021/12/19 04:20:37;;;;;;;3.47;1.60;;;;;13.40;103241.00;;;;5024524;28;20219;-84
2021/12/19 04:23:05;;;;;;;2.55;1.42;;;;;13.40;103244.00;;;;5028078;28;20204;-85
2021/12/19 04:25:33;;;;;;;1.90;1.20;;;;;13.40;103229.00;;;;5020543;28;20200;-85
2021/12/19 04:28:00;;;;;;;2.05;1.40;;;;;13.50;103228.00;;;;5022362;28;20671;-85
2021/12/19 04:30:28;;;;;;;2.53;1.33;;;;;13.50;103227.00;;;;5023455;28;20203;-85
2021/12/19 04:33:00;;;;;;;2.65;1.38;;;;;13.50;103220.00;;;;5020717;28;20204;-85
2021/12/19 04:35:33;;;;;;;3.10;1.85;;;;;13.50;103229.00;;;;5013944;28;20204;-85
2021/12/19 04:41:05;;;;;;;2.80;1.17;;;;;13.50;103217.00;;;;5008214;28;20222;-86
2021/12/19 04:52:14;;;;;;;2.92;1.42;;;;;13.50;103204.00;;;;5019488;28;20973;-84
2021/12/19 04:54:57;;;;;;;2.35;1.25;;;;;13.60;103212.00;;;;5027623;28;20562;-85
2021/12/19 04:57:32;;;;;;;2.42;1.17;;;;;13.60;103206.00;;;;5012900;28;20234;-85
2021/12/19 05:00:04;;;;;;;2.08;1.30;;;;;13.60;103197.00;;;;5015875;28;20196;-86
2021/12/19 05:05:31;;;;;;;3.03;1.40;;;;;13.60;103205.00;;;;5009389;28;20211;-85
2021/12/19 05:16:16;;;;;;;3.17;1.80;;;;;13.60;103211.00;;;;5015729;28;20744;-85
2021/12/19 05:18:45;;;;;;;2.75;1.55;;;;;13.60;103210.00;;;;5025485;28;20683;-86
2021/12/19 05:21:17;;;;;;;2.65;1.73;;;;;13.60;103192.00;;;;5019324;28;20197;-86
2021/12/19 05:24:16;;;;;;;2.97;1.80;;;;;13.60;103206.00;;;;5023757;28;20698;-84
2021/12/19 05:26:43;;;;;;;3.45;2.08;;;;;13.60;103197.00;;;;5020788;28;20287;-85
2021/12/19 05:29:11;;;;;;;2.65;1.55;;;;;13.70;103198.00;;;;5025419;28;20279;-86
2021/12/19 05:31:38;;;;;;;3.17;1.75;;;;;13.60;103197.00;;;;5027122;28;20199;-85
2021/12/19 05:34:07;;;;;;;4.10;2.17;;;;;13.60;103199.00;;;;5026485;28;20200;-86
2021/12/19 05:47:36;;;;;;;3.40;2.20;;;;;13.60;103184.00;;;;5017731;28;20203;-86
2021/12/19 05:50:03;;;;;;;3.90;2.40;;;;;13.60;103193.00;;;;5028921;28;20698;-86
2021/12/19 05:52:32;;;;;;;3.15;2.10;;;;;13.60;103191.00;;;;5014954;28;20208;-86
2021/12/19 05:55:00;;;;;;;3.28;2.17;;;;;13.60;103189.00;;;;5013773;28;20208;-86
2021/12/19 05:57:28;;;;;;;5.07;2.40;;;;;13.60;103194.00;;;;5027890;28;20240;-86
2021/12/19 05:59:55;;;;;;;3.03;1.80;;;;;13.70;103195.00;;;;5030506;28;20562;-86
2021/12/19 06:02:23;;;;;;;4.18;2.80;;;;;13.70;103202.00;;;;5013818;28;20193;-85
2021/12/19 06:04:50;;;;;;;4.78;2.10;;;;;13.70;103198.00;;;;5018717;28;20211;-86
2021/12/19 06:07:17;;;;;;;3.03;1.85;;;;;13.70;103195.00;;;;5029033;28;20670;-85
2021/12/19 06:09:45;;;;;;;3.42;1.95;;;;;13.70;103189.00;;;;5024190;28;20201;-85
2021/12/19 06:12:13;;;;;;;3.50;1.83;;;;;13.70;103192.00;;;;5027923;28;20207;-84
2021/12/19 06:14:41;;;;;;;2.38;1.85;;;;;13.80;103187.00;;;;5018036;28;20192;-85
2021/12/19 06:17:08;;;;;;;3.63;2.10;;;;;13.80;103183.00;;;;5030061;28;20224;-86
2021/12/19 06:19:36;;;;;;;4.53;2.30;;;;;13.80;103187.00;;;;5020391;28;20201;-87
2021/12/19 06:22:05;;;;;;;3.03;1.85;;;;;13.70;103191.00;;;;5016201;28;20204;-84
2021/12/19 06:24:34;;;;;;;2.60;1.70;;;;;13.70;103179.00;;;;5024595;28;20732;-86
2021/12/19 06:27:02;;;;;;;3.13;1.38;;;;;13.70;103189.00;;;;5026177;28;20754;-85
2021/12/19 06:30:05;;;;;;;2.35;1.60;;;;;13.60;103183.00;;;;5027460;28;20204;-86
2021/12/19 06:32:44;;;;;;;2.90;1.50;;;;;13.60;103180.00;;;;5013270;28;20215;-86
2021/12/19 06:35:18;;;;;;;2.65;1.60;;;;;13.70;103187.00;;;;5024767;28;20207;-85
2021/12/19 06:37:47;;;;;;;2.63;1.50;;;;;13.70;103184.00;;;;5028645;28;20252;-87
2021/12/19 06:40:17;;;;;;;1.80;1.02;;;;;13.70;103174.00;;;;5029564;28;21298;-87
2021/12/19 06:42:45;;;;;;;2.05;1.20;;;;;13.70;103174.00;;;;5019598;28;20215;-85
2021/12/19 06:45:14;;;;;;;2.28;1.63;;;;;13.70;103167.00;;;;5029615;28;20189;-85
2021/12/19 06:47:42;;;;;;;2.15;1.27;;;;;13.70;103167.00;;;;5025937;28;20200;-86
2021/12/19 06:50:12;;;;;;;3.22;1.75;;;;;13.70;103169.00;;;;5020918;28;20220;-85
2021/12/19 06:52:41;;;;;;;1.60;1.10;;;;;13.70;103161.00;;;;5014996;28;20219;-87
2021/12/19 06:55:09;;;;;;;1.50;0.95;;;;;13.70;103160.00;;;;5028968;28;20208;-85
2021/12/19 06:57:38;;;;;;;2.50;1.48;;;;;13.70;103158.00;;;;5016007;28;20235;-87
2021/12/19 07:00:08;;;;;;;2.45;1.77;;;;;13.70;103167.00;;;;5025555;28;20617;-85
2021/12/19 07:02:37;;;;;;;3.65;1.33;;;;;13.70;103169.00;;;;5019360;28;20200;-86
2021/12/19 07:05:07;;;;;;;2.10;1.10;;;;;13.70;103165.00;;;;5017801;28;20211;-86
2021/12/19 07:07:34;;;;;;;1.98;1.35;;;;;13.70;103165.00;;;;5023043;28;20189;-86
2021/12/19 07:10:04;;;;;;;2.25;1.38;;;;;13.70;103168.00;;;;5019231;28;20201;-88
2021/12/19 07:12:32;;;;;;;1.73;1.10;;;;;13.70;103173.00;;;;5023076;28;20196;-89
2021/12/19 07:15:01;;;;;;;2.45;1.38;;;;;13.70;103160.00;;;;5022389;28;20205;-85
2021/12/19 07:17:29;;;;;;;3.58;1.52;;;;;13.70;103163.00;;;;5024930;28;20234;-88
2021/12/19 07:20:08;;;;;;;2.78;1.10;;;;;13.70;103166.00;;;;5030509;28;20204;-86
2021/12/19 07:22:41;;;;;;;2.10;1.17;;;;;13.70;103163.00;;;;5026571;28;20571;-86
2021/12/19 07:25:10;;;;;;;2.22;1.02;;;;;13.70;103163.00;;;;5010011;28;20189;-86
2021/12/19 07:27:38;;;;;;;1.42;0.88;;;;;13.80;103155.00;;;;5026168;28;20200;-87
2021/12/19 07:30:06;;;;;;;1.67;0.65;;;;;13.80;103148.00;;;;5023873;28;20205;-86
2021/12/19 07:32:36;;;;;;;1.00;0.50;;;;;13.80;103153.00;;;;5016508;28;20201;-84
2021/12/19 07:35:07;;;;;;;0.82;0.65;;;;;13.80;103147.00;;;;5029958;28;20223;-85
2021/12/19 07:37:36;;;;;;;0.95;0.50;;;;;13.80;103144.00;;;;5024183;28;20223;-86
2021/12/19 07:40:11;;;;;;;1.10;0.70;;;;;13.80;103138.00;;;;5026349;28;20274;-86
2021/12/19 07:42:38;;;;;;;0.60;0.32;;;;;13.80;103143.00;;;;5020003;28;20196;-85
2021/12/19 07:45:07;;;;;;;1.42;0.80;;;;;13.70;103145.00;;;;5020421;28;20200;-87
2021/12/19 07:47:34;;;;;;;1.23;0.70;;;;;13.70;103144.00;;;;5028079;28;20200;-85
2021/12/19 07:50:06;;;;;;;1.33;0.50;;;;;13.60;103140.00;;;;5012822;28;20239;-87
2021/12/19 07:52:34;;;;;;;1.25;0.77;;;;;13.60;103137.00;;;;5027499;28;20189;-87
2021/12/19 07:55:03;;;;;;;1.05;0.60;;;;;13.60;103132.00;;;;5028670;28;20208;-86
2021/12/19 07:57:30;;;;;;;1.08;0.50;;;;;13.60;103130.00;;;;5019824;28;20228;-86
2021/12/19 07:59:57;;;;;;;1.38;0.73;;;;;13.60;103130.00;;;;5031243;28;20196;-87
2021/12/19 08:02:27;;;;;;;0.82;0.43;;;;;13.60;103125.00;;;;5010883;28;20205;-89
2021/12/19 08:04:56;;;;;;;1.33;0.65;;;;;13.60;103128.00;;;;5011134;28;20228;-89
2021/12/19 08:07:24;;;;;;;0.95;0.60;;;;;13.60;103131.00;;;;5022576;28;20192;-86
2021/12/19 08:10:13;;;;;;;1.20;0.85;;;;;13.60;103130.00;;;;5017089;28;20696;-89
2021/12/19 08:12:40;;;;;;;2.28;0.60;;;;;13.50;103122.00;;;;5018570;28;20266;-85
2021/12/19 08:15:11;;;;;;;0.45;0.30;;;;;13.50;103127.00;;;;5028681;28;20543;-89
2021/12/19 08:17:39;;;;;;;0.65;0.32;;;;;13.50;103128.00;;;;5027499;28;20601;-86
2021/12/19 08:20:09;;;;;;;0.68;0.35;;;;;13.50;103128.00;;;;5021863;28;20189;-88
2021/12/19 08:22:38;;;;;;;1.48;0.95;;;;;13.50;103129.00;;;;5022340;28;20227;-87
2021/12/19 08:25:08;;;;;;;1.65;0.93;;;;;13.50;103122.00;;;;5028556;28;20655;-87
2021/12/19 08:27:37;;;;;;;1.33;0.50;;;;;13.50;103124.00;;;;5023187;28;20200;-88
2021/12/19 08:30:08;;;;;;;1.40;0.80;;;;;13.50;103119.00;;;;5028039;28;20550;-86
2021/12/19 08:32:35;;;;;;;0.90;0.50;;;;;13.50;103117.00;;;;5008833;28;20386;-84
2021/12/19 08:35:03;;;;;;;2.47;0.80;;;;;13.50;103120.00;;;;5022640;28;20208;-86
2021/12/19 08:37:30;;;;;;;2.33;1.00;;;;;13.60;103112.00;;;;5027551;28;20223;-84
2021/12/19 08:40:00;;;;;;;1.45;0.80;;;;;13.60;103125.00;;;;5028012;28;20200;-84
2021/12/19 08:42:31;;;;;;;1.60;0.60;;;;;13.60;103119.00;;;;5027386;28;20212;-85
2021/12/19 08:44:59;;;;;;;0.52;0.22;;;;;13.60;103118.00;;;;5028645;28;20231;-85
2021/12/19 08:47:27;;;;;;;0.63;0.35;;;;;13.60;103108.00;;;;5024036;28;20201;-85
2021/12/19 08:49:54;;;;;;;0.70;0.43;;;;;13.60;103106.00;;;;5027385;28;20220;-86
2021/12/19 08:52:21;;;;;;;0.90;0.63;;;;;13.60;103099.00;;;;5028357;28;20675;-85
2021/12/19 08:54:49;;;;;;;1.05;0.55;;;;;13.60;103108.00;;;;5028538;28;20200;-86
2021/12/19 08:57:17;;;;;;;3.10;0.55;;;;;13.70;103107.00;;;;5026962;28;20228;-88
2021/12/19 08:59:45;;;;;;;0.15;0.13;;;;;13.70;103110.00;;;;5024593;28;20200;-85
2021/12/19 09:02:12;;;;;;;1.50;0.30;;;;;13.70;103113.00;;;;5028011;28;20577;-83
2021/12/19 09:04:39;;;;;;;0.28;0.20;;;;;13.70;103117.00;;;;5021987;28;20201;-87
2021/12/19 09:07:06;;;;;;;3.50;0.30;;;;;13.80;103112.00;;;;5026459;28;20227;-87
2021/12/19 09:09:34;;;;;;;0.93;0.40;;;;;13.80;103104.00;;;;5029217;28;20563;-88
2021/12/19 09:12:01;;;;;;;0.35;0.20;;;;;13.80;103095.00;;;;5030632;28;20196;-88
2021/12/19 09:14:30;;;;;;;0.32;0.28;;;;;13.80;103103.00;;;;5023238;28;20207;-84
2021/12/19 09:16:57;;;;;;;0.65;0.15;;;;;13.90;103107.00;;;;5021770;28;20692;-84
2021/12/19 09:19:25;;;;;;;0.10;0.10;;;;;13.90;103100.00;;;;5026586;28;20279;-84
2021/12/19 09:21:52;;;;;;;0.10;0.10;;;;;13.90;103103.00;;;;5039580;28;20204;-83
2021/12/19 09:24:20;;;;;;;0.28;0.10;;;;;13.90;103108.00;;;;5029662;28;20225;-84
2021/12/19 09:26:48;;;;;;;0.30;0.20;;;;;13.90;103106.00;;;;5031127;28;20209;-84
2021/12/19 09:29:15;;;;;;;0.30;0.10;;;;;14.00;103114.00;;;;5030264;28;20207;-85
2021/12/19 09:31:44;;;;;;;0.47;0.20;;;;;14.00;103110.00;;;;5029802;28;20224;-85
2021/12/19 09:34:11;;;;;;;0.10;0.00;;;;;14.00;103107.00;;;;5024409;28;20219;-84
2021/12/19 09:36:39;;;;;;;1.10;0.10;;;;;14.10;103097.00;;;;5023664;28;20892;-84
2021/12/19 09:39:07;;;;;;;0.65;0.30;;;;;14.10;103097.00;;;;5022870;28;20221;-87
2021/12/19 09:41:43;;;;;;;0.20;0.05;;;;;14.10;103099.00;;;;5030714;28;20236;-86
2021/12/19 09:44:14;;;;;;;0.47;0.10;;;;;14.10;103103.00;;;;5022024;28;20211;-85
2021/12/19 09:46:46;;;;;;;0.20;0.10;;;;;14.10;103106.00;;;;5030924;28;20204;-86
2021/12/19 09:49:16;;;;;;;0.30;0.10;;;;;14.10;103106.00;;;;5029596;28;20279;-86
2021/12/19 09:51:44;;;;;;;0.30;0.20;;;;;14.10;103106.00;;;;5028463;28;20200;-84
2021/12/19 09:54:12;;;;;;;0.60;0.10;;;;;14.10;103105.00;;;;5016341;28;20192;-85
2021/12/19 09:56:42;;;;;;;0.70;0.15;;;;;14.20;103109.00;;;;5023898;28;20224;-84
2021/12/19 09:59:13;;;;;;;0.50;0.20;;;;;14.10;103102.00;;;;5029212;28;20493;-83
2021/12/19 10:01:41;;;;;;;0.70;0.30;;;;;14.30;103109.00;;;;5029148;28;20254;-83
2021/12/19 10:07:24;;;;;;;0.32;0.20;;;;;14.20;103097.00;;;;5106095;27;20565;-82
2021/12/19 10:10:00;;;;;;;2.05;0.28;;;;;14.20;103091.00;;;;5086068;28;20644;-82
2021/12/19 10:12:39;;;;;;;0.30;0.20;;;;;14.20;103089.00;;;;5084515;28;20613;-82
2021/12/19 10:15:10;;;;;;;0.40;0.28;;;;;14.20;103089.00;;;;5090622;28;20189;-82
2021/12/19 10:17:39;;;;;;;0.50;0.30;;;;;14.20;103089.00;;;;5094809;28;20686;-80
2021/12/19 10:20:09;;;;;;;0.45;0.30;;;;;14.20;103089.00;;;;5097153;28;20211;-80
2021/12/19 10:22:40;;;;;;;0.50;0.30;;;;;14.10;103089.00;;;;5085451;28;20194;-80
2021/12/19 10:25:19;;;;;;;1.00;0.60;;;;;14.10;103087.00;;;;5095031;28;20214;-79
2021/12/19 10:27:49;;;;;;;3.70;1.15;;;;;14.10;103084.00;;;;5085629;28;20194;-80
2021/12/19 10:30:30;;;;;;;1.10;0.82;;;;;14.00;103080.00;;;;5085569;28;20198;-79
2021/12/19 10:33:00;;;;;;;1.35;0.70;;;;;14.10;103081.00;;;;5087022;28;20197;-79
2021/12/19 10:35:31;;;;;;;2.10;0.70;;;;;14.10;103081.00;;;;5086115;28;20198;-78
2021/12/19 10:38:01;;;;;;;1.92;0.90;;;;;14.10;103079.00;;;;5087964;28;20894;-79
2021/12/19 10:40:29;;;;;;;3.85;0.82;;;;;14.10;103077.00;;;;5085934;28;20618;-79
2021/12/19 10:43:01;;;;;;;1.67;0.70;;;;;14.00;103076.00;;;;5085663;28;20206;-79
2021/12/19 10:45:34;;;;;;;1.40;0.70;;;;;14.00;103065.00;;;;5087792;28;20274;-78
2021/12/19 10:48:25;;;;;;;2.47;0.73;;;;;13.90;103065.00;;;;5098282;28;20190;-79
2021/12/19 10:50:55;;;;;;;2.35;1.00;;;;;14.00;103065.00;;;;5099185;28;20210;-80
2021/12/19 10:53:29;;;;;;;1.63;0.88;;;;;14.00;103059.00;;;;5096978;28;20201;-81
2021/12/19 10:56:07;;;;;;;1.63;0.80;;;;;13.90;103058.00;;;;5089576;28;20190;-79
2021/12/19 10:58:40;;;;;;;2.13;0.60;;;;;14.00;103041.00;;;;5086659;28;20190;-79
2021/12/19 11:01:13;;;;;;;4.72;0.90;;;;;14.00;103042.00;;;;5087197;28;20190;-79
2021/12/19 11:03:47;;;;;;;1.90;0.70;;;;;14.00;103039.00;;;;5087583;28;21090;-81
2021/12/19 11:06:22;;;;;;;5.25;0.80;;;;;14.00;103031.00;;;;5084403;28;21043;-77
2021/12/19 11:08:52;;;;;;;1.75;0.80;;;;;14.00;103034.00;;;;5088263;28;20193;-77
2021/12/19 11:11:41;;;;;;;3.20;0.88;;;;;13.90;103026.00;;;;5087041;28;20191;-77
2021/12/19 11:14:10;;;;;;;3.67;1.08;;;;;14.10;103019.00;;;;5083102;28;20264;-77
2021/12/19 11:16:38;;;;;;;3.25;1.20;;;;;14.10;103009.00;;;;5078266;28;20199;-79
2021/12/19 11:19:05;;;;;;;3.85;1.05;;;;;14.00;103011.00;;;;5069813;28;20206;-81
2021/12/19 11:21:35;;;;;;;2.20;1.10;;;;;14.00;103004.00;;;;5068954;28;20211;-79
2021/12/19 11:24:06;;;;;;;3.78;1.25;;;;;14.00;103003.00;;;;5069498;28;20677;-80
2021/12/19 11:26:35;;;;;;;2.72;0.77;;;;;14.00;103007.00;;;;5070086;28;20678;-79
2021/12/19 11:29:02;;;;;;;4.85;1.40;;;;;14.00;103000.00;;;;5070954;28;20199;-80
2021/12/19 11:31:32;;;;;;;3.10;1.10;;;;;14.00;103003.00;;;;5070139;28;20212;-80
2021/12/19 11:34:37;;;;;;;2.97;1.00;;;;;13.90;103003.00;;;;5070508;28;20669;-79
2021/12/19 11:37:11;;;;;;;2.53;1.38;;;;;14.00;103004.00;;;;5074174;28;20197;-79
2021/12/19 11:39:44;;;;;;;3.45;1.10;;;;;14.00;103004.00;;;;5070492;28;20669;-79
2021/12/19 11:42:14;;;;;;;2.97;1.30;;;;;14.00;103004.00;;;;5070893;28;20195;-79
2021/12/19 11:44:59;;;;;;;1.85;1.50;;;;;14.10;103006.00;;;;5070564;28;21888;-81
2021/12/19 11:47:42;;;;;;;1.80;1.23;;;;;14.00;102997.00;;;;5073851;28;20692;-82
2021/12/19 11:50:22;;;;;;;2.05;1.10;;;;;14.00;102992.00;;;;5069967;28;20645;-80
2021/12/19 11:52:51;;;;;;;3.35;1.38;;;;;14.10;102990.00;;;;5070733;28;20186;-80
2021/12/19 11:55:45;;;;;;;1.50;0.80;;;;;14.00;102981.00;;;;5069695;28;20199;-81
2021/12/19 11:58:19;;;;;;;2.97;1.10;;;;;14.00;102983.00;;;;5080826;28;20726;-80
2021/12/19 12:00:55;;;;;;;3.47;1.35;;;;;14.00;102980.00;;;;5076769;28;20194;-80
2021/12/19 12:03:28;;;;;;;2.00;1.38;;;;;14.00;102976.00;;;;5075789;28;20196;-81
2021/12/19 12:06:26;;;;;;;2.22;1.10;;;;;13.80;102973.00;;;;5074311;28;20246;-82
2021/12/19 12:09:40;;;;;;;3.60;1.15;;;;;13.80;102970.00;;;;5077848;28;20451;-82
2021/12/19 12:12:17;;;;;;;1.80;0.98;;;;;13.80;102974.00;;;;5076228;28;20190;-81
2021/12/19 12:15:04;;;;;;;1.58;0.82;;;;;13.70;102971.00;;;;5073051;28;20194;-82
2021/12/19 12:17:38;;;;;;;2.05;1.10;;;;;13.80;102973.00;;;;5078676;28;20203;-82
2021/12/19 12:20:15;;;;;;;3.42;1.08;;;;;13.70;102965.00;;;;5074743;28;20202;-82
2021/12/19 12:22:52;;;;;;;2.30;1.13;;;;;13.70;102958.00;;;;5071216;28;20684;-83
2021/12/19 12:25:30;;;;;;;2.10;1.00;;;;;13.80;102967.00;;;;5074412;28;20195;-84
2021/12/19 12:28:04;;;;;;;2.88;1.15;;;;;13.80;102957.00;;;;5081110;28;20191;-83
2021/12/19 12:30:36;;;;;;;2.00;1.23;;;;;13.80;102955.00;;;;5069537;28;20218;-82
2021/12/19 12:33:05;;;;;;;2.63;1.10;;;;;13.80;102949.00;;;;5084060;28;20696;-83
2021/12/19 12:35:35;;;;;;;2.00;1.10;;;;;13.80;102943.00;;;;5071558;28;20712;-83
2021/12/19 12:38:03;;;;;;;3.65;1.40;;;;;13.80;102940.00;;;;5072061;28;20187;-83
2021/12/19 12:40:43;;;;;;;3.13;1.25;;;;;13.80;102932.00;;;;5073448;28;20669;-83
2021/12/19 12:43:14;;;;;;;1.48;0.90;;;;;13.90;102928.00;;;;5077264;28;20194;-83
2021/12/19 12:45:54;;;;;;;1.83;0.90;;;;;13.80;102926.00;;;;5082822;28;21011;-83
2021/12/19 12:48:49;;;;;;;1.30;0.93;;;;;13.80;102920.00;;;;5078142;28;20665;-83
2021/12/19 12:51:24;;;;;;;1.45;0.77;;;;;13.90;102917.00;;;;5059522;28;20238;-84
2021/12/19 12:53:53;;;;;;;2.03;0.68;;;;;13.90;102916.00;;;;5076262;28;20229;-85
2021/12/19 12:56:28;;;;;;;1.23;0.73;;;;;13.90;102918.00;;;;5077215;28;20201;-85
2021/12/19 12:58:57;;;;;;;3.63;0.80;;;;;14.00;102907.00;;;;5082263;28;20510;-86
2021/12/19 13:01:29;;;;;;;2.20;1.00;;;;;14.00;102913.00;;;;5086049;28;20201;-87
2021/12/19 13:04:04;;;;;;;1.30;0.60;;;;;13.90;102912.00;;;;5088203;28;20680;-87
2021/12/19 13:06:50;;;;;;;2.92;1.15;;;;;13.90;102911.00;;;;5075474;28;20241;-86
2021/12/19 13:09:20;;;;;;;1.27;0.45;;;;;13.90;102909.00;;;;5089928;28;20206;-87
2021/12/19 13:11:50;;;;;;;3.65;1.08;;;;;14.00;102902.00;;;;5086595;28;20213;-87
2021/12/19 13:14:23;;;;;;;2.40;1.00;;;;;14.00;102903.00;;;;5084275;27;20205;-85
2021/12/19 13:16:52;;;;;;;1.58;0.60;;;;;14.00;102897.00;;;;5080205;28;20206;-86
2021/12/19 13:19:43;;;;;;;1.55;1.00;;;;;13.90;102907.00;;;;5086568;28;20309;-84
2021/12/19 13:22:13;;;;;;;3.00;1.10;;;;;14.00;102900.00;;;;5074333;28;20633;-85